createdAt,value
2023-03-02T00:01:49.704Z,16.57
2023-03-02T00:04:25.515Z,14.17
2023-03-02T00:06:57.270Z,15.23
2023-03-02T00:09:24.328Z,16.50
2023-03-02T00:11:51.685Z,13.40
2023-03-02T00:14:18.207Z,17.53
2023-03-02T00:16:44.712Z,16.57
2023-03-02T00:19:11.171Z,17.90
2023-03-02T00:21:37.659Z,17.87
2023-03-02T00:24:04.585Z,14.20
2023-03-02T00:26:36.624Z,16.40
2023-03-02T00:29:03.692Z,14.27
2023-03-02T00:31:30.412Z,14.77
2023-03-02T00:33:56.991Z,15.23
2023-03-02T00:36:23.859Z,14.97
2023-03-02T00:38:52.353Z,14.70
2023-03-02T00:41:21.716Z,15.33
2023-03-02T00:43:49.031Z,14.07
2023-03-02T00:46:19.923Z,14.60
2023-03-02T00:48:47.203Z,14.10
2023-03-02T00:51:15.090Z,14.10
2023-03-02T00:53:41.997Z,14.57
2023-03-02T00:56:09.397Z,14.60
2023-03-02T00:58:36.643Z,13.77
2023-03-02T01:01:09.752Z,11.67
2023-03-02T01:03:37.156Z,12.57
2023-03-02T01:06:04.890Z,13.13
2023-03-02T01:08:31.962Z,12.57
2023-03-02T01:11:01.343Z,11.87
2023-03-02T01:13:28.521Z,12.53
2023-03-02T01:16:03.032Z,14.50
2023-03-02T01:18:29.606Z,12.33
2023-03-02T01:21:03.935Z,13.47
2023-03-02T01:23:30.398Z,11.47
2023-03-02T01:25:57.022Z,14.03
2023-03-02T01:28:23.758Z,14.90
2023-03-02T01:30:50.369Z,14.20
2023-03-02T01:33:16.888Z,14.73
2023-03-02T01:35:46.346Z,15.20
2023-03-02T01:38:13.747Z,16.03
2023-03-02T01:40:41.268Z,15.87
2023-03-02T01:43:13.473Z,16.57
2023-03-02T01:45:48.310Z,18.37
2023-03-02T01:48:18.489Z,20.90
2023-03-02T01:50:47.187Z,17.37
2023-03-02T01:53:23.006Z,17.57
2023-03-02T01:55:49.867Z,15.67
2023-03-02T01:58:17.254Z,13.20
2023-03-02T02:00:45.179Z,14.93
2023-03-02T02:03:21.183Z,12.57
2023-03-02T02:06:04.339Z,14.93
2023-03-02T02:08:31.499Z,16.27
2023-03-02T02:10:58.586Z,15.77
2023-03-02T02:13:25.296Z,12.33
2023-03-02T02:15:52.010Z,13.47
2023-03-02T02:18:18.581Z,16.57
2023-03-02T02:20:46.900Z,14.40
2023-03-02T02:23:25.837Z,13.30
2023-03-02T02:25:58.450Z,15.03
2023-03-02T02:28:31.534Z,15.97
2023-03-02T02:31:07.819Z,12.50
2023-03-02T02:33:36.758Z,11.83
2023-03-02T02:36:08.667Z,10.70
2023-03-02T02:38:37.242Z,11.77
2023-03-02T02:41:08.075Z,12.00
2023-03-02T02:43:34.750Z,12.27
2023-03-02T02:46:02.366Z,11.50
2023-03-02T02:48:31.310Z,13.50
2023-03-02T02:51:03.298Z,12.67
2023-03-02T02:53:50.197Z,18.27
2023-03-02T02:56:17.526Z,12.87
2023-03-02T02:58:47.865Z,14.83
2023-03-02T03:01:16.799Z,16.17
2023-03-02T03:03:50.397Z,15.20
2023-03-02T03:06:21.108Z,14.73
2023-03-02T03:08:47.531Z,14.90
2023-03-02T03:11:19.415Z,16.67
2023-03-02T03:13:47.056Z,15.63
2023-03-02T03:16:17.096Z,16.67
2023-03-02T03:18:46.244Z,16.13
2023-03-02T03:21:12.804Z,16.30
2023-03-02T03:23:39.248Z,15.87
2023-03-02T03:26:06.188Z,17.13
2023-03-02T03:28:33.448Z,14.27
2023-03-02T03:31:00.018Z,9.53
2023-03-02T03:33:26.601Z,10.13
2023-03-02T03:35:53.202Z,13.33
2023-03-02T03:38:19.854Z,11.57
2023-03-02T03:40:46.677Z,12.67
2023-03-02T03:43:15.219Z,14.80
2023-03-02T03:45:41.698Z,13.23
2023-03-02T03:48:08.223Z,14.13
2023-03-02T03:50:35.599Z,11.57
2023-03-02T03:53:03.839Z,12.63
2023-03-02T03:55:31.243Z,16.03
2023-03-02T03:57:57.791Z,16.77
2023-03-02T04:00:24.366Z,11.70
2023-03-02T04:02:50.999Z,14.90
2023-03-02T04:05:17.841Z,14.83
2023-03-02T04:07:44.339Z,13.37
2023-03-02T04:10:12.418Z,13.47
2023-03-02T04:12:41.024Z,15.10
2023-03-02T04:15:13.057Z,12.63
2023-03-02T04:17:39.566Z,43.67
2023-03-02T04:20:09.746Z,29.37
2023-03-02T04:22:36.387Z,15.80
2023-03-02T04:25:03.245Z,13.40
2023-03-02T04:27:29.734Z,13.83
2023-03-02T04:29:56.234Z,14.07
2023-03-02T04:32:22.782Z,14.83
2023-03-02T04:34:49.318Z,15.70
2023-03-02T04:37:16.116Z,13.40
2023-03-02T04:39:47.443Z,13.70
2023-03-02T04:42:14.014Z,13.87
2023-03-02T04:44:40.553Z,14.53
2023-03-02T04:47:07.046Z,13.77
2023-03-02T04:49:33.511Z,18.57
2023-03-02T04:52:00.212Z,100.50
2023-03-02T04:54:27.712Z,16.27
2023-03-02T04:56:54.951Z,15.23
2023-03-02T04:59:26.072Z,15.33
2023-03-02T05:01:57.678Z,17.03
2023-03-02T05:04:24.770Z,16.37
2023-03-02T05:06:51.384Z,19.63
2023-03-02T05:09:18.209Z,13.50
2023-03-02T05:11:44.839Z,13.07
2023-03-02T05:14:13.003Z,17.77
2023-03-02T05:16:41.866Z,13.37
2023-03-02T05:19:10.840Z,12.90
2023-03-02T05:21:37.355Z,13.43
2023-03-02T05:24:04.620Z,13.00
2023-03-02T05:26:31.759Z,16.30
2023-03-02T05:28:58.437Z,12.53
2023-03-02T05:31:32.652Z,15.73
2023-03-02T05:33:59.169Z,16.23
2023-03-02T05:36:25.700Z,16.30
2023-03-02T05:38:52.247Z,16.23
2023-03-02T05:41:18.807Z,16.70
2023-03-02T05:43:45.337Z,19.40
2023-03-02T05:46:11.774Z,16.60
2023-03-02T05:48:38.265Z,15.00
2023-03-02T05:51:05.408Z,17.60
2023-03-02T05:53:31.881Z,17.23
2023-03-02T05:55:58.441Z,18.60
2023-03-02T05:58:24.965Z,17.07
2023-03-02T06:00:52.523Z,18.53
2023-03-02T06:03:19.128Z,17.87
2023-03-02T06:05:50.764Z,18.93
2023-03-02T06:08:21.651Z,19.00
2023-03-02T06:10:50.738Z,17.03
2023-03-02T06:13:17.356Z,16.80
2023-03-02T06:15:44.046Z,16.43
2023-03-02T06:18:12.604Z,19.13
2023-03-02T06:20:40.501Z,22.30
2023-03-02T06:23:07.175Z,17.63
2023-03-02T06:25:36.113Z,17.67
2023-03-02T06:28:02.687Z,18.17
2023-03-02T06:30:29.377Z,18.70
2023-03-02T06:32:55.912Z,18.50
2023-03-02T06:35:24.064Z,23.37
2023-03-02T06:37:51.001Z,17.50
2023-03-02T06:40:17.861Z,19.13
2023-03-02T06:42:44.452Z,20.27
2023-03-02T06:45:11.504Z,19.67
2023-03-02T06:47:38.200Z,16.70
2023-03-02T06:50:06.459Z,19.30
2023-03-02T06:52:33.405Z,15.77
2023-03-02T06:55:00.124Z,17.17
2023-03-02T06:57:33.784Z,17.77
2023-03-02T07:00:02.425Z,17.63
2023-03-02T07:02:28.946Z,18.40
2023-03-02T07:04:55.442Z,18.87
2023-03-02T07:07:21.886Z,17.47
2023-03-02T07:09:48.394Z,19.10
2023-03-02T07:12:14.938Z,20.07
2023-03-02T07:14:41.407Z,18.47
2023-03-02T07:17:08.901Z,18.40
2023-03-02T07:19:35.463Z,18.30
2023-03-02T07:22:01.980Z,17.50
2023-03-02T07:24:28.633Z,14.80
2023-03-02T07:26:55.110Z,19.60
2023-03-02T07:29:21.575Z,20.53
2023-03-02T07:31:48.652Z,19.80
2023-03-02T07:34:16.359Z,17.70
2023-03-02T07:36:42.814Z,15.67
2023-03-02T07:39:09.398Z,16.33
2023-03-02T07:41:36.071Z,16.40
2023-03-02T07:44:02.606Z,17.03
2023-03-02T07:46:29.100Z,17.90
2023-03-02T07:48:56.563Z,18.17
2023-03-02T07:51:23.303Z,17.40
2023-03-02T07:53:49.857Z,17.53
2023-03-02T07:56:16.559Z,14.10
2023-03-02T07:58:43.122Z,17.27
2023-03-02T08:01:10.061Z,16.27
2023-03-02T08:03:37.101Z,15.20
2023-03-02T08:06:08.417Z,16.10
2023-03-02T08:08:35.884Z,18.40
2023-03-02T08:11:17.119Z,16.70
2023-03-02T08:13:44.553Z,15.53
2023-03-02T08:16:13.278Z,17.73
2023-03-02T08:18:40.730Z,20.10
2023-03-02T08:21:15.973Z,18.67
2023-03-02T08:23:43.276Z,18.60
2023-03-02T08:26:12.497Z,19.57
2023-03-02T08:28:40.584Z,19.67
2023-03-02T08:31:09.138Z,16.83
2023-03-02T08:33:36.352Z,16.53
2023-03-02T08:36:07.204Z,20.23
2023-03-02T08:38:35.083Z,18.47
2023-03-02T08:41:07.366Z,17.90
2023-03-02T08:43:34.549Z,17.83
2023-03-02T08:46:01.923Z,19.67
2023-03-02T08:48:29.506Z,16.93
2023-03-02T08:50:59.174Z,16.97
2023-03-02T08:53:26.577Z,20.13
2023-03-02T08:55:53.205Z,18.67
2023-03-02T08:58:19.669Z,19.60
2023-03-02T09:00:46.480Z,22.67
2023-03-02T09:03:13.145Z,17.23
2023-03-02T09:05:39.735Z,16.30
2023-03-02T09:08:06.939Z,17.27
2023-03-02T09:10:33.686Z,16.40
2023-03-02T09:13:00.222Z,18.73
2023-03-02T09:15:26.823Z,17.13
2023-03-02T09:17:53.635Z,14.17
2023-03-02T09:20:20.126Z,14.33
2023-03-02T09:22:50.741Z,15.50
2023-03-02T09:25:18.817Z,16.53
2023-03-02T09:27:47.027Z,14.93
2023-03-02T09:30:15.613Z,16.33
2023-03-02T09:32:42.484Z,17.57
2023-03-02T09:35:09.371Z,15.40
2023-03-02T09:37:38.945Z,14.97
2023-03-02T09:40:15.696Z,14.50
2023-03-02T09:43:14.563Z,17.27
2023-03-02T09:45:52.168Z,16.20
2023-03-02T09:48:31.821Z,15.03
2023-03-02T09:51:16.285Z,14.40
2023-03-02T09:54:05.299Z,14.37
2023-03-02T09:56:35.995Z,14.97
2023-03-02T09:59:13.731Z,15.13
2023-03-02T10:01:51.168Z,14.70
2023-03-02T10:04:36.375Z,15.23
2023-03-02T10:07:13.764Z,18.93
2023-03-02T10:09:41.315Z,15.73
2023-03-02T10:12:43.308Z,16.33
2023-03-02T10:15:26.104Z,17.33
2023-03-02T10:18:04.098Z,17.27
2023-03-02T10:20:37.567Z,14.00
2023-03-02T10:23:41.718Z,17.70
2023-03-02T10:26:20.204Z,16.60
2023-03-02T10:29:05.915Z,18.63
2023-03-02T10:31:34.133Z,17.13
2023-03-02T10:34:01.341Z,14.47
2023-03-02T10:36:30.484Z,15.80
2023-03-02T10:39:00.431Z,17.40
2023-03-02T10:41:41.363Z,19.10
2023-03-02T10:44:37.779Z,16.80
2023-03-02T10:47:06.180Z,16.00
2023-03-02T10:49:39.504Z,16.37
2023-03-02T10:52:14.092Z,18.47
2023-03-02T10:54:41.087Z,14.97
2023-03-02T10:57:29.096Z,17.20
2023-03-02T11:00:01.998Z,16.60
2023-03-02T11:02:29.696Z,17.43
2023-03-02T11:05:20.006Z,15.33
2023-03-02T11:08:08.546Z,43.23
2023-03-02T11:10:41.213Z,20.40
2023-03-02T11:13:20.672Z,17.23
2023-03-02T11:15:49.420Z,19.17
2023-03-02T11:18:25.016Z,16.63
2023-03-02T11:21:22.790Z,16.10
2023-03-02T11:24:00.632Z,17.63
2023-03-02T11:26:32.298Z,15.77
2023-03-02T11:29:04.253Z,16.33
2023-03-02T11:31:49.824Z,19.77
2023-03-02T11:34:43.441Z,15.87
2023-03-02T11:37:48.197Z,17.83
2023-03-02T11:40:21.595Z,16.20
2023-03-02T11:42:48.426Z,15.67
2023-03-02T11:45:15.477Z,15.97
2023-03-02T11:48:02.150Z,16.97
2023-03-02T11:50:30.875Z,14.83
2023-03-02T11:53:06.372Z,15.97
2023-03-02T11:55:42.976Z,15.30
2023-03-02T11:58:18.292Z,16.67
2023-03-02T12:00:45.598Z,17.90
2023-03-02T12:03:15.147Z,17.87
2023-03-02T12:05:44.947Z,17.83
2023-03-02T12:08:20.757Z,16.80
2023-03-02T12:11:18.053Z,16.33
2023-03-02T12:13:53.495Z,17.63
2023-03-02T12:16:36.276Z,21.57
2023-03-02T12:19:29.121Z,20.40
2023-03-02T12:22:10.574Z,15.80
2023-03-02T12:24:39.587Z,16.47
2023-03-02T12:27:25.647Z,18.43
2023-03-02T12:29:57.610Z,18.60
2023-03-02T12:32:30.247Z,19.13
2023-03-02T12:35:02.848Z,19.00
2023-03-02T12:37:36.493Z,17.63
2023-03-02T12:40:15.276Z,16.73
2023-03-02T12:43:19.754Z,15.83
2023-03-02T12:46:03.472Z,15.43
2023-03-02T12:48:36.173Z,16.63
2023-03-02T12:51:05.862Z,17.37
2023-03-02T12:53:32.427Z,17.83
2023-03-02T12:55:59.013Z,16.43
2023-03-02T12:58:28.378Z,19.03
2023-03-02T13:00:59.326Z,17.87
2023-03-02T13:03:28.000Z,18.47
2023-03-02T13:06:02.959Z,16.80
2023-03-02T13:08:31.248Z,18.00
2023-03-02T13:11:01.553Z,16.97
2023-03-02T13:13:41.718Z,15.40
2023-03-02T13:16:23.274Z,16.00
2023-03-02T13:18:57.034Z,20.30
2023-03-02T13:21:39.576Z,16.13
2023-03-02T13:24:44.881Z,14.87
2023-03-02T13:27:22.715Z,14.70
2023-03-02T13:29:50.226Z,13.50
2023-03-02T13:32:19.248Z,12.43
2023-03-02T13:34:57.439Z,14.67
2023-03-02T13:37:39.130Z,14.20
2023-03-02T13:40:27.709Z,12.90
2023-03-02T13:42:54.743Z,10.83
2023-03-02T13:45:23.793Z,12.10
2023-03-02T13:47:50.403Z,9.20
2023-03-02T13:50:26.672Z,10.17
2023-03-02T13:52:56.870Z,10.60
2023-03-02T13:55:24.316Z,10.97
2023-03-02T13:57:52.767Z,10.80
2023-03-02T14:00:21.600Z,10.63
2023-03-02T14:02:50.566Z,11.40
2023-03-02T14:05:33.283Z,13.33
2023-03-02T14:08:01.184Z,13.50
2023-03-02T14:10:27.863Z,9.97
2023-03-02T14:13:02.457Z,10.20
2023-03-02T14:15:28.989Z,11.57
2023-03-02T14:17:55.577Z,11.07
2023-03-02T14:20:22.111Z,12.07
2023-03-02T14:22:50.549Z,11.20
2023-03-02T14:25:17.296Z,11.40
2023-03-02T14:27:44.344Z,11.63
2023-03-02T14:30:20.434Z,10.30
2023-03-02T14:32:47.304Z,11.07
2023-03-02T14:35:15.938Z,9.93
2023-03-02T14:37:49.848Z,10.83
2023-03-02T14:40:28.230Z,10.77
2023-03-02T14:42:55.040Z,15.00
2023-03-02T14:45:21.832Z,11.73
2023-03-02T14:47:49.154Z,9.33
2023-03-02T14:50:17.350Z,8.77
2023-03-02T14:52:48.284Z,7.90
2023-03-02T14:55:20.735Z,9.33
2023-03-02T14:57:50.111Z,8.10
2023-03-02T15:00:16.958Z,10.30
2023-03-02T15:02:43.626Z,8.90
2023-03-02T15:05:10.304Z,10.30
2023-03-02T15:07:39.027Z,8.20
2023-03-02T15:10:06.530Z,10.73
2023-03-02T15:12:33.857Z,10.37
2023-03-02T15:15:00.653Z,8.60
2023-03-02T15:17:27.238Z,13.13
2023-03-02T15:19:53.781Z,14.37
2023-03-02T15:22:20.285Z,11.83
2023-03-02T15:24:46.921Z,12.70
2023-03-02T15:27:14.647Z,11.73
2023-03-02T15:29:46.260Z,13.13
2023-03-02T15:32:13.458Z,12.23
2023-03-02T15:34:39.987Z,54.97
2023-03-02T15:37:06.746Z,23.07
2023-03-02T15:39:34.053Z,15.57
2023-03-02T15:42:01.100Z,15.23
2023-03-02T15:44:29.739Z,12.60
2023-03-02T15:46:58.720Z,12.60
2023-03-02T15:49:28.331Z,12.23
2023-03-02T15:51:59.583Z,12.03
2023-03-02T15:54:26.908Z,12.30
2023-03-02T15:56:53.680Z,11.20
2023-03-02T15:59:21.533Z,11.30
2023-03-02T16:01:48.070Z,11.10
2023-03-02T16:04:14.596Z,19.27
2023-03-02T16:06:41.571Z,14.67
2023-03-02T16:09:08.463Z,11.87
2023-03-02T16:11:35.069Z,10.03
2023-03-02T16:14:01.730Z,10.00
2023-03-02T16:16:28.578Z,12.60
2023-03-02T16:18:57.384Z,10.77
2023-03-02T16:21:25.709Z,12.60
2023-03-02T16:23:55.645Z,10.73
2023-03-02T16:26:22.730Z,14.13
2023-03-02T16:28:49.413Z,33.47
2023-03-02T16:31:20.169Z,19.63
2023-03-02T16:33:47.633Z,12.17
2023-03-02T16:36:14.800Z,9.90
2023-03-02T16:38:41.877Z,11.57
2023-03-02T16:41:14.579Z,11.50
2023-03-02T16:43:55.816Z,10.93
2023-03-02T16:46:24.430Z,12.63
2023-03-02T16:48:51.956Z,14.13
2023-03-02T16:51:20.985Z,11.47
2023-03-02T16:53:47.644Z,15.60
2023-03-02T16:56:15.101Z,11.97
2023-03-02T16:58:42.916Z,15.53
2023-03-02T17:01:12.503Z,12.13
2023-03-02T17:03:39.089Z,11.33
2023-03-02T17:06:07.873Z,13.53
2023-03-02T17:08:34.956Z,12.57
2023-03-02T17:11:01.764Z,13.43
2023-03-02T17:13:28.510Z,12.37
2023-03-02T17:15:55.166Z,12.63
2023-03-02T17:18:21.721Z,14.80
2023-03-02T17:20:52.560Z,16.70
2023-03-02T17:23:19.121Z,24.80
2023-03-02T17:25:45.660Z,16.17
2023-03-02T17:28:12.705Z,15.23
2023-03-02T17:30:39.879Z,17.20
2023-03-02T17:33:06.643Z,19.17
2023-03-02T17:35:33.200Z,16.60
2023-03-02T17:38:03.032Z,18.17
2023-03-02T17:40:29.717Z,20.83
2023-03-02T17:42:57.763Z,17.53
2023-03-02T17:45:26.660Z,20.13
2023-03-02T17:47:54.558Z,17.63
2023-03-02T17:50:22.427Z,20.83
2023-03-02T17:52:49.723Z,18.00
2023-03-02T17:55:17.022Z,16.83
2023-03-02T17:57:43.574Z,19.53
2023-03-02T18:00:14.419Z,17.63
2023-03-02T18:02:41.068Z,19.57
2023-03-02T18:05:10.107Z,61.93
2023-03-02T18:07:37.182Z,50.80
2023-03-02T18:10:05.082Z,24.77
2023-03-02T18:12:31.770Z,22.13
2023-03-02T18:14:58.328Z,19.50
2023-03-02T18:17:24.925Z,19.97
2023-03-02T18:19:51.517Z,17.90
2023-03-02T18:22:18.085Z,19.67
2023-03-02T18:24:44.590Z,20.40
2023-03-02T18:27:11.172Z,19.83
2023-03-02T18:29:37.726Z,18.37
2023-03-02T18:32:04.391Z,22.70
2023-03-02T18:34:30.931Z,17.13
2023-03-02T18:36:57.568Z,18.87
2023-03-02T18:39:24.111Z,17.83
2023-03-02T18:41:50.650Z,18.57
2023-03-02T18:44:17.815Z,22.60
2023-03-02T18:46:44.341Z,18.20
2023-03-02T18:49:11.080Z,16.73
2023-03-02T18:51:37.913Z,17.07
2023-03-02T18:54:05.218Z,21.57
2023-03-02T18:56:31.747Z,18.87
2023-03-02T18:58:58.395Z,18.67
2023-03-02T19:01:26.287Z,19.37
2023-03-02T19:03:56.905Z,18.30
2023-03-02T19:06:23.592Z,21.33
2023-03-02T19:08:50.146Z,18.63
2023-03-02T19:11:16.708Z,21.30
2023-03-02T19:13:43.202Z,21.27
2023-03-02T19:16:09.769Z,18.43
2023-03-02T19:18:37.926Z,22.83
2023-03-02T19:21:05.394Z,18.77
2023-03-02T19:23:33.120Z,23.50
2023-03-02T19:26:00.594Z,23.57
2023-03-02T19:28:27.722Z,22.10
2023-03-02T19:30:54.225Z,21.90
2023-03-02T19:33:20.769Z,25.33
2023-03-02T19:35:47.363Z,26.00
2023-03-02T19:38:13.894Z,19.77
2023-03-02T19:40:40.524Z,19.00
2023-03-02T19:43:07.116Z,37.47
2023-03-02T19:45:34.998Z,23.87
2023-03-02T19:48:02.996Z,23.87
2023-03-02T19:50:30.293Z,23.20
2023-03-02T19:52:58.178Z,22.43
2023-03-02T19:55:25.818Z,24.30
2023-03-02T19:57:59.590Z,24.00
2023-03-02T20:00:28.529Z,26.60
2023-03-02T20:02:55.373Z,26.87
2023-03-02T20:05:21.919Z,24.37
2023-03-02T20:07:48.375Z,26.70
2023-03-02T20:10:43.315Z,22.63
2023-03-02T20:13:10.805Z,26.20
2023-03-02T20:15:40.898Z,24.50
2023-03-02T20:18:14.794Z,23.17
2023-03-02T20:20:42.274Z,26.47
2023-03-02T20:23:09.018Z,29.67
2023-03-02T20:25:36.579Z,27.67
2023-03-02T20:28:05.914Z,27.03
2023-03-02T20:30:39.938Z,24.50
2023-03-02T20:33:08.035Z,24.50
2023-03-02T20:35:37.755Z,26.97
2023-03-02T20:38:06.262Z,31.43
2023-03-02T20:40:34.075Z,24.73
2023-03-02T20:43:01.084Z,27.80
2023-03-02T20:45:28.403Z,23.87
2023-03-02T20:47:55.537Z,25.20
2023-03-02T20:50:25.402Z,25.97
2023-03-02T20:52:51.994Z,23.07
2023-03-02T20:55:19.331Z,24.20
2023-03-02T20:57:46.131Z,27.93
2023-03-02T21:00:21.090Z,28.03
2023-03-02T21:02:48.449Z,30.70
2023-03-02T21:05:15.740Z,24.93
2023-03-02T21:07:43.088Z,29.30
2023-03-02T21:10:13.418Z,27.53
2023-03-02T21:12:40.061Z,33.43
2023-03-02T21:15:07.245Z,31.90
2023-03-02T21:17:33.871Z,30.90
2023-03-02T21:20:00.356Z,28.43
2023-03-02T21:22:27.213Z,29.47
2023-03-02T21:24:53.966Z,31.63
2023-03-02T21:27:21.114Z,28.93
2023-03-02T21:29:48.798Z,31.60
2023-03-02T21:32:15.556Z,29.37
2023-03-02T21:34:42.273Z,34.67
2023-03-02T21:37:08.794Z,29.57
2023-03-02T21:39:35.366Z,29.97
2023-03-02T21:42:01.852Z,32.30
2023-03-02T21:44:28.380Z,31.43
2023-03-02T21:46:55.087Z,34.93
2023-03-02T21:49:23.179Z,31.93
2023-03-02T21:51:50.992Z,35.00
2023-03-02T21:54:17.618Z,35.73
2023-03-02T21:56:44.569Z,29.57
2023-03-02T21:59:12.364Z,31.97
2023-03-02T22:01:38.851Z,30.50
2023-03-02T22:04:05.759Z,34.47
2023-03-02T22:06:34.233Z,33.10
2023-03-02T22:09:01.673Z,30.27
2023-03-02T22:11:32.713Z,38.00
2023-03-02T22:14:02.443Z,32.20
2023-03-02T22:16:38.270Z,34.87
2023-03-02T22:19:20.507Z,34.27
2023-03-02T22:21:50.628Z,36.13
2023-03-02T22:24:25.798Z,38.03
2023-03-02T22:27:04.639Z,32.20
2023-03-02T22:29:44.716Z,35.53
2023-03-02T22:32:19.130Z,37.73
2023-03-02T22:34:47.656Z,37.73
2023-03-02T22:37:20.439Z,35.30
2023-03-02T22:39:48.428Z,41.67
2023-03-02T22:42:20.648Z,40.40
2023-03-02T22:45:22.633Z,45.70
2023-03-02T22:47:51.504Z,46.83
2023-03-02T22:50:22.635Z,43.87
2023-03-02T22:52:49.993Z,43.50
2023-03-02T22:55:36.888Z,48.97
2023-03-02T22:58:27.176Z,42.47
2023-03-02T23:00:54.006Z,42.47
2023-03-02T23:03:23.630Z,48.03
2023-03-02T23:05:52.820Z,46.77
2023-03-02T23:08:24.285Z,46.17
2023-03-02T23:10:53.983Z,47.83
2023-03-02T23:13:25.179Z,53.30
2023-03-02T23:15:53.426Z,48.37
2023-03-02T23:18:24.410Z,48.13
2023-03-02T23:20:51.948Z,44.60
2023-03-02T23:23:19.879Z,49.77
2023-03-02T23:25:46.768Z,47.13
2023-03-02T23:28:13.312Z,52.13
2023-03-02T23:30:39.801Z,45.77
2023-03-02T23:33:07.090Z,44.17
2023-03-02T23:35:33.682Z,43.17
2023-03-02T23:38:01.585Z,46.90
2023-03-02T23:40:29.286Z,46.17
2023-03-02T23:42:56.081Z,43.10
2023-03-02T23:45:22.709Z,45.43
2023-03-02T23:47:49.280Z,51.33
2023-03-02T23:50:16.266Z,44.87
2023-03-02T23:52:42.970Z,42.77
2023-03-02T23:55:10.108Z,48.00
2023-03-02T23:57:36.834Z,47.70
